Time;durP1;ratioP1;P1;durP2;ratioP2;P2;SDS_P1;SDS_P2;PMS_P1;PMS_P2;Temp;Humidity;BMP_temperature;BMP_pressure;BME280_temperature;BME280_humidity;BME280_pressure;Samples;Min_cycle;Max_cycle;Signal;HPM_P1;HPM_P2
2021/10/28 00:14:42;;;;;;;8.90;6.00;;;;;;;9.49;97.53;102016.59;5032528;28;20029;-36
2021/10/28 00:17:12;;;;;;;10.95;6.07;;;;;;;9.42;98.09;101996.81;5032430;28;20030;-35
2021/10/28 00:19:39;;;;;;;8.18;5.85;;;;;;;9.44;97.73;102020.91;5036000;28;20144;-35
2021/10/28 00:22:06;;;;;;;10.38;5.90;;;;;;;9.44;97.84;102021.75;5114872;28;20065;-35
2021/10/28 00:24:32;;;;;;;9.80;6.00;;;;;;;9.46;98.45;102008.88;5115035;28;20030;-36
2021/10/28 00:26:57;;;;;;;12.65;6.60;;;;;;;9.45;97.93;102017.19;5114905;28;20019;-36
2021/10/28 00:29:23;;;;;;;9.75;6.00;;;;;;;9.33;97.54;102006.09;5114715;28;20028;-35
2021/10/28 00:31:49;;;;;;;11.20;6.22;;;;;;;9.40;98.50;102008.84;5115007;28;20023;-36
2021/10/28 00:34:17;;;;;;;12.75;6.80;;;;;;;9.42;98.04;102020.25;5114835;28;20042;-35
2021/10/28 00:36:45;;;;;;;9.77;5.55;;;;;;;9.40;97.77;102015.06;5115301;28;20367;-35
2021/10/28 00:39:11;;;;;;;10.15;5.97;;;;;;;9.41;98.50;102016.72;5115244;28;20398;-35
2021/10/28 00:41:38;;;;;;;10.73;5.88;;;;;;;9.44;97.94;102005.56;5115033;28;20084;-35
2021/10/28 00:44:05;;;;;;;11.20;6.45;;;;;;;9.47;98.44;102004.34;5114872;28;20092;-35
2021/10/28 00:46:32;;;;;;;10.48;6.75;;;;;;;9.35;97.76;101990.53;5114475;28;20456;-36
2021/10/28 00:48:59;;;;;;;10.07;6.47;;;;;;;9.41;97.91;102007.81;5114890;28;20115;-35
2021/10/28 00:51:27;;;;;;;10.93;6.57;;;;;;;9.45;97.98;102004.50;5115285;28;20426;-36
2021/10/28 00:53:53;;;;;;;10.40;6.45;;;;;;;9.34;98.13;101985.31;5114366;28;20020;-35
2021/10/28 00:56:21;;;;;;;10.90;5.82;;;;;;;9.39;98.18;101999.91;5114177;28;20114;-35
2021/10/28 00:58:47;;;;;;;10.13;5.80;;;;;;;9.39;98.06;101999.91;5114635;28;20131;-36
2021/10/28 01:01:12;;;;;;;10.57;6.40;;;;;;;9.29;98.42;101985.91;5114883;28;20479;-36
2021/10/28 01:03:39;;;;;;;10.53;6.13;;;;;;;9.30;97.95;101979.47;5114077;28;20024;-36
2021/10/28 01:06:06;;;;;;;11.35;6.25;;;;;;;9.36;98.04;102007.56;5114422;28;20469;-35
2021/10/28 01:08:34;;;;;;;13.95;6.70;;;;;;;9.35;98.05;102004.03;5114248;28;20049;-35
2021/10/28 01:11:00;;;;;;;12.07;6.80;;;;;;;9.10;98.07;101976.59;5114883;28;20019;-36
2021/10/28 01:13:26;;;;;;;12.87;6.30;;;;;;;9.25;97.60;102003.50;5113831;28;20406;-36
2021/10/28 01:15:53;;;;;;;10.80;5.95;;;;;;;9.24;97.35;102001.84;5114053;28;20031;-36
2021/10/28 01:18:19;;;;;;;7.20;5.65;;;;;;;9.22;97.40;101995.78;5114551;28;20024;-35
2021/10/28 01:20:48;;;;;;;10.95;6.13;;;;;;;9.22;97.93;101995.78;5113973;28;20347;-36
2021/10/28 01:23:15;;;;;;;10.77;6.05;;;;;;;9.17;97.90;101992.84;5114189;28;20047;-35
2021/10/28 01:25:41;;;;;;;15.68;6.53;;;;;;;9.20;98.05;102003.25;5114159;28;20477;-36
2021/10/28 01:28:12;;;;;;;9.57;6.15;;;;;;;9.12;97.91;101998.81;5114166;28;20136;-36
2021/10/28 01:30:38;;;;;;;10.02;6.70;;;;;;;9.10;97.13;101995.50;5114439;28;20031;-35
2021/10/28 01:33:03;;;;;;;7.68;5.88;;;;;;;8.98;97.40;101976.31;5114586;28;20028;-35
2021/10/28 01:35:29;;;;;;;10.00;6.47;;;;;;;9.06;97.79;101994.19;5113788;28;20332;-35
2021/10/28 01:37:55;;;;;;;10.50;6.50;;;;;;;9.05;97.69;101983.63;5113825;28;20068;-35
2021/10/28 01:40:20;;;;;;;;;;;;;;;9.12;97.20;101990.72;5113630;28;20052;-35
2021/10/28 01:42:49;;;;;;;11.83;6.40;;;;;;;9.04;97.48;101985.47;5113779;28;19994;-35
2021/10/28 01:45:15;;;;;;;13.35;6.90;;;;;;;8.98;98.16;101989.78;5113584;28;20031;-36
2021/10/28 01:47:40;;;;;;;11.27;6.32;;;;;;;9.03;97.89;101991.91;5114398;28;20020;-35
2021/10/28 01:50:07;;;;;;;8.20;6.53;;;;;;;8.99;98.09;101982.53;5113304;28;20015;-36
2021/10/28 01:52:35;;;;;;;11.45;7.22;;;;;;;8.91;98.06;101966.47;5114140;28;20126;-35
2021/10/28 01:55:00;;;;;;;10.27;6.20;;;;;;;8.87;98.78;101962.47;5113791;28;20027;-35
2021/10/28 01:57:26;;;;;;;16.83;6.63;;;;;;;8.94;98.12;101977.72;5113696;28;20402;-36
2021/10/28 01:59:51;;;;;;;11.23;7.18;;;;;;;8.93;98.82;101981.44;5113200;28;20384;-36
2021/10/28 02:02:16;;;;;;;10.90;7.07;;;;;;;8.94;98.27;101969.63;5113522;28;20019;-35
2021/10/28 02:04:42;;;;;;;9.63;5.93;;;;;;;8.84;98.79;101960.19;5114218;28;20092;-36
2021/10/28 02:07:07;;;;;;;13.60;6.97;;;;;;;8.92;98.74;101973.53;5113448;28;20063;-36
2021/10/28 02:09:33;;;;;;;9.70;6.40;;;;;;;8.95;98.27;101970.44;5113518;28;20111;-36
2021/10/28 02:12:00;;;;;;;11.05;7.35;;;;;;;8.80;98.35;101954.31;5113673;28;20110;-36
2021/10/28 02:14:26;;;;;;;;;;;;;;;8.96;98.02;101972.94;5113828;28;20038;-35
2021/10/28 02:16:51;;;;;;;10.80;6.88;;;;;;;8.84;98.10;101965.56;5113492;28;20007;-35
2021/10/28 02:19:17;;;;;;;11.17;6.33;;;;;;;8.82;98.24;101963.03;5113039;28;20051;-35
2021/10/28 02:21:42;;;;;;;12.00;6.23;;;;;;;8.76;97.75;101953.88;5113649;28;20016;-36
2021/10/28 02:24:08;;;;;;;8.23;6.68;;;;;;;8.78;98.51;101950.97;5113581;28;20066;-36
2021/10/28 02:26:33;;;;;;;11.23;7.13;;;;;;;8.69;98.43;101938.66;5113528;28;20023;-35
2021/10/28 02:28:58;;;;;;;8.27;6.23;;;;;;;8.74;98.84;101955.09;5113040;28;20023;-35
2021/10/28 02:31:24;;;;;;;12.00;6.27;;;;;;;8.73;98.78;101953.41;5113493;28;20250;-36
2021/10/28 02:33:49;;;;;;;10.43;6.67;;;;;;;8.64;98.01;101927.63;5113542;28;20038;-36
2021/10/28 02:36:17;;;;;;;10.83;6.30;;;;;;;8.72;98.51;101941.78;5114334;28;20026;-35
2021/10/28 02:38:42;;;;;;;11.18;6.78;;;;;;;8.45;97.67;101902.94;5113968;28;20038;-35
2021/10/28 02:41:08;;;;;;;10.97;6.53;;;;;;;8.42;98.22;101903.31;5113217;28;20290;-35
2021/10/28 02:43:33;;;;;;;13.40;7.67;;;;;;;8.58;97.87;101937.28;5113231;28;20023;-35
2021/10/28 02:45:58;;;;;;;11.37;7.50;;;;;;;8.55;98.02;101934.16;5113369;28;20517;-36
2021/10/28 02:48:24;;;;;;;14.77;6.90;;;;;;;8.54;98.18;101927.06;5113310;28;20012;-35
2021/10/28 02:50:49;;;;;;;8.73;6.63;;;;;;;8.48;98.31;101939.44;5113692;28;20356;-35
2021/10/28 02:53:14;;;;;;;14.10;7.47;;;;;;;8.45;97.63;101927.19;5117086;28;20443;-35
2021/10/28 02:55:40;;;;;;;9.73;6.87;;;;;;;8.41;97.80;101923.22;5116513;28;20023;-35
2021/10/28 02:58:05;;;;;;;11.57;6.60;;;;;;;8.37;97.81;101919.22;5116728;28;20423;-35
2021/10/28 03:00:31;;;;;;;10.30;7.10;;;;;;;8.35;98.00;101920.41;5116626;28;20020;-36
2021/10/28 03:02:56;;;;;;;11.02;7.35;;;;;;;8.34;98.04;101927.66;5117517;28;20509;-35
2021/10/28 03:05:22;;;;;;;22.63;8.17;;;;;;;8.25;98.04;101913.47;5116613;28;20019;-35
2021/10/28 03:07:47;;;;;;;12.70;7.93;;;;;;;8.21;97.67;101904.09;5116804;28;20012;-35
2021/10/28 03:10:14;;;;;;;13.25;7.78;;;;;;;8.17;97.87;101912.75;5116357;28;20350;-35
2021/10/28 03:12:41;;;;;;;9.98;7.40;;;;;;;8.10;97.53;101903.72;5117365;28;20106;-35
2021/10/28 03:15:09;;;;;;;11.30;7.25;;;;;;;8.11;97.56;101905.41;5116384;28;20411;-35
2021/10/28 03:25:41;;;;;;;12.50;8.68;;;;;;;7.97;98.06;101899.88;5116328;28;20387;-35
2021/10/28 03:28:15;;;;;;;14.52;8.55;;;;;;;8.02;98.67;101903.84;5116569;28;20031;-35
2021/10/28 03:30:41;;;;;;;12.43;8.52;;;;;;;7.78;97.61;101861.91;5116068;28;20144;-35
2021/10/28 03:33:09;;;;;;;13.85;8.30;;;;;;;7.97;98.43;101891.78;5116401;28;20036;-35
2021/10/28 03:35:34;;;;;;;13.52;8.30;;;;;;;7.93;98.23;101890.47;5116221;28;20346;-35
2021/10/28 03:38:09;;;;;;;13.27;8.90;;;;;;;7.89;97.58;101883.78;5116333;28;20103;-35
2021/10/28 04:07:46;;;;;;;15.65;8.07;;;;;;;7.65;98.93;101868.78;5032515;28;20500;-35
2021/10/28 04:28:54;;;;;;;11.18;8.50;;;;;;;7.63;99.73;101854.69;5032197;28;20044;-35
2021/10/28 04:31:24;;;;;;;13.10;8.65;;;;;;;7.59;99.29;101852.56;5032872;28;20048;-35
2021/10/28 04:33:49;;;;;;;11.45;8.77;;;;;;;7.60;99.66;101843.44;5032276;28;20112;-35
2021/10/28 04:36:15;;;;;;;14.37;9.10;;;;;;;7.68;99.05;101856.81;5114537;28;20098;-35
2021/10/28 04:38:40;;;;;;;11.63;8.90;;;;;;;7.71;99.65;101856.41;5114925;28;20471;-35
2021/10/28 04:41:05;;;;;;;17.60;9.17;;;;;;;7.50;99.18;101832.97;5115045;28;20466;-35
2021/10/28 04:43:31;;;;;;;11.77;8.40;;;;;;;7.67;99.50;101855.16;5114747;28;20092;-35
2021/10/28 04:45:56;;;;;;;14.83;9.50;;;;;;;7.62;99.15;101860.25;5114665;28;20359;-35
2021/10/28 04:48:22;;;;;;;13.82;9.02;;;;;;;7.61;99.86;101856.75;5114845;28;20022;-35
2021/10/28 04:50:47;;;;;;;12.30;9.23;;;;;;;7.60;100.00;101859.59;5114307;28;20098;-35
2021/10/28 04:53:13;;;;;;;13.97;9.53;;;;;;;7.63;99.40;101861.94;5115365;28;20049;-35
2021/10/28 04:55:38;;;;;;;11.60;8.27;;;;;;;7.60;99.96;101860.44;5114503;28;20019;-35
2021/10/28 04:58:04;;;;;;;11.93;8.93;;;;;;;7.63;100.00;101859.22;5114782;28;20372;-35
2021/10/28 05:00:30;;;;;;;15.13;8.98;;;;;;;7.65;100.00;101855.31;5114358;28;20026;-35
2021/10/28 05:02:55;;;;;;;12.02;9.55;;;;;;;7.68;100.00;101859.50;5114744;28;20024;-35
2021/10/28 05:05:21;;;;;;;13.07;10.03;;;;;;;7.67;99.58;101852.47;5114561;28;20030;-35
2021/10/28 05:07:47;;;;;;;16.38;10.52;;;;;;;7.63;99.74;101853.84;5114234;28;20023;-35
2021/10/28 05:10:12;;;;;;;12.57;9.40;;;;;;;7.54;100.00;101844.19;5114268;28;20027;-35
2021/10/28 05:12:37;;;;;;;10.93;8.27;;;;;;;7.66;99.85;101845.38;5114770;28;20371;-35
2021/10/28 05:15:03;;;;;;;14.73;10.27;;;;;;;7.61;99.95;101847.81;5114005;28;20035;-35
2021/10/28 05:17:29;;;;;;;11.55;9.60;;;;;;;7.57;99.34;101849.22;5113880;28;20407;-35
2021/10/28 05:19:54;;;;;;;13.37;10.23;;;;;;;7.47;99.73;101830.66;5114527;28;20023;-35
2021/10/28 05:22:20;;;;;;;13.23;10.97;;;;;;;7.61;100.00;101842.41;5114139;28;20016;-36
2021/10/28 05:24:45;;;;;;;;;;;;;;;7.67;99.35;101845.22;5114914;28;20067;-36
2021/10/28 05:27:11;;;;;;;13.90;10.10;;;;;;;7.57;99.67;101844.66;5114620;28;20009;-36
2021/10/28 05:29:36;;;;;;;15.40;10.57;;;;;;;7.47;100.00;101834.19;5113943;28;20077;-36
2021/10/28 05:32:03;;;;;;;14.77;10.03;;;;;;;7.55;99.36;101840.47;5113968;28;20413;-35
2021/10/28 05:34:28;;;;;;;16.00;10.60;;;;;;;7.51;99.58;101834.63;5114046;28;20031;-35
2021/10/28 05:36:54;;;;;;;13.13;10.40;;;;;;;7.46;99.03;101837.88;5114178;28;20102;-35
2021/10/28 05:39:19;;;;;;;14.23;11.37;;;;;;;7.40;100.00;101821.66;5114032;28;20015;-35
2021/10/28 05:41:45;;;;;;;15.13;10.83;;;;;;;7.43;100.00;101830.19;5114602;28;20024;-35
2021/10/28 05:44:10;;;;;;;14.23;11.17;;;;;;;7.32;99.72;101806.44;5113762;28;20440;-35
2021/10/28 05:46:36;;;;;;;17.63;11.23;;;;;;;7.38;100.00;101824.53;5113671;28;20106;-35
2021/10/28 05:49:02;;;;;;;16.63;12.23;;;;;;;7.44;99.76;101818.41;5113375;28;20047;-35
2021/10/28 05:51:28;;;;;;;17.70;11.77;;;;;;;7.38;100.00;101803.00;5114019;28;20027;-35
2021/10/28 05:53:53;;;;;;;14.68;11.73;;;;;;;7.32;100.00;101790.31;5113864;28;20387;-35
2021/10/28 05:56:18;;;;;;;19.03;12.07;;;;;;;7.40;100.00;101800.13;5113656;28;20452;-35
2021/10/28 05:58:44;;;;;;;17.43;12.70;;;;;;;7.28;100.00;101789.00;5113248;28;20020;-35
2021/10/28 06:01:09;;;;;;;13.60;10.73;;;;;;;7.33;100.00;101801.91;5096031;28;20043;-35
2021/10/28 06:03:37;;;;;;;16.38;10.95;;;;;;;7.38;100.00;101799.47;5094673;28;20031;-35
2021/10/28 06:06:03;;;;;;;14.85;11.63;;;;;;;7.28;99.84;101805.16;5114319;28;20114;-35
2021/10/28 06:08:28;;;;;;;15.50;11.80;;;;;;;7.31;99.54;101806.63;5095245;28;20035;-35
2021/10/28 06:10:53;;;;;;;17.47;12.00;;;;;;;7.33;100.00;101808.13;5113535;28;20023;-36
2021/10/28 06:13:19;;;;;;;18.90;12.53;;;;;;;7.34;99.93;101808.94;5113535;28;20026;-37
2021/10/28 06:15:46;;;;;;;18.83;12.73;;;;;;;7.31;100.00;101803.94;5113757;28;20055;-36
2021/10/28 06:20:37;;;;;;;18.13;11.37;;;;;;;7.28;99.83;101813.22;5113815;28;20157;-36
2021/10/28 06:23:03;;;;;;;18.55;13.40;;;;;;;7.19;100.00;101804.41;5113574;28;20040;-36
2021/10/28 06:25:29;;;;;;;16.92;12.27;;;;;;;7.16;100.00;101801.22;5114126;28;20020;-36
2021/10/28 06:27:54;;;;;;;20.05;12.80;;;;;;;7.23;100.00;101812.94;5117851;28;20356;-36
2021/10/28 06:30:21;;;;;;;21.20;13.35;;;;;;;7.21;100.00;101813.09;5117763;28;20100;-36
2021/10/28 06:32:52;;;;;;;25.67;13.73;;;;;;;7.21;100.00;101798.81;5099780;28;20357;-36
2021/10/28 06:35:17;;;;;;;19.00;13.18;;;;;;;7.19;100.00;101801.72;5117149;28;20107;-36
2021/10/28 06:37:47;;;;;;;20.60;13.90;;;;;;;7.19;100.00;101795.50;5117308;28;20103;-36
2021/10/28 06:40:14;;;;;;;18.33;13.40;;;;;;;7.14;100.00;101800.59;5098765;28;20371;-36
2021/10/28 06:42:39;;;;;;;18.45;14.13;;;;;;;7.03;100.00;101779.53;5117802;28;20103;-36
2021/10/28 06:45:05;;;;;;;20.07;13.43;;;;;;;6.91;100.00;101755.78;5117026;28;20059;-36
2021/10/28 06:47:30;;;;;;;26.73;14.75;;;;;;;7.09;100.00;101798.47;5117460;28;20300;-36
2021/10/28 06:49:58;;;;;;;18.63;14.03;;;;;;;7.09;100.00;101797.63;5117485;28;20355;-36
2021/10/28 06:52:24;;;;;;;19.52;15.02;;;;;;;7.06;100.00;101798.00;5117932;28;20043;-36
2021/10/28 06:54:52;;;;;;;24.90;14.97;;;;;;;7.08;100.00;101790.59;5098571;28;20035;-36
2021/10/28 07:02:42;;;;;;;21.00;14.65;;;;;;;7.06;100.00;101789.91;5116707;28;20038;-36
2021/10/28 07:05:08;;;;;;;20.83;14.90;;;;;;;7.13;100.00;101802.47;5117165;28;20015;-36
2021/10/28 07:07:34;;;;;;;21.50;15.15;;;;;;;7.19;100.00;101803.56;5117128;28;20020;-36
2021/10/28 07:12:44;;;;;;;25.27;15.32;;;;;;;7.12;100.00;101787.31;5116583;28;20421;-36
2021/10/28 07:39:25;;;;;;;21.38;15.75;;;;;;;7.62;100.00;101798.34;5115010;28;20100;-36
2021/10/28 08:21:57;;;;;;;22.17;15.15;;;;;;;8.68;98.25;101789.50;5115703;28;20444;-35
2021/10/28 08:29:44;;;;;;;23.70;14.85;;;;;;;8.91;97.71;101777.63;5115301;28;20043;-35
2021/10/28 08:32:09;;;;;;;21.67;14.82;;;;;;;9.01;97.55;101775.41;5114933;28;20071;-35
2021/10/28 08:34:36;;;;;;;17.07;14.03;;;;;;;9.06;97.58;101764.84;5114947;28;20102;-35
2021/10/28 08:37:19;;;;;;;17.10;13.85;;;;;;;9.14;96.73;101758.47;5114810;28;20026;-35
2021/10/28 08:39:46;;;;;;;18.48;13.23;;;;;;;9.28;96.46;101762.91;5114790;28;20024;-35
2021/10/28 08:42:14;;;;;;;17.23;12.82;;;;;;;9.39;96.32;101765.03;5114556;28;20072;-35
2021/10/28 08:44:41;;;;;;;18.20;13.32;;;;;;;9.46;95.85;101757.78;5114368;28;20061;-35
2021/10/28 08:47:08;;;;;;;18.33;12.98;;;;;;;9.58;96.28;101760.75;5115092;28;20103;-35
2021/10/28 08:50:00;;;;;;;19.08;12.88;;;;;;;9.64;94.96;101757.25;5114138;28;20378;-35
2021/10/28 09:24:05;;;;;;;18.77;12.93;;;;;;;10.80;90.62;101697.47;5114000;28;20090;-35
2021/10/28 09:29:11;;;;;;;15.30;12.00;;;;;;;11.07;90.29;101696.34;5114156;28;20035;-35
2021/10/28 09:31:47;;;;;;;18.40;12.23;;;;;;;11.16;90.28;101693.41;5113966;28;20055;-35
2021/10/28 09:45:54;;;;;;;16.30;11.90;;;;;;;11.74;87.64;101671.66;5011426;28;20097;-35
2021/10/28 09:51:02;;;;;;;17.45;11.75;;;;;;;11.88;86.67;101648.84;5011082;28;20543;-36
2021/10/28 09:53:33;;;;;;;20.77;12.05;;;;;;;12.05;86.87;101655.41;5011322;28;20033;-35
2021/10/28 09:59:07;;;;;;;14.88;10.18;;;;;;;12.25;85.23;101640.81;4972547;28;20034;-35
2021/10/28 10:01:46;;;;;;;14.05;10.43;;;;;;;12.36;85.31;101642.81;4973603;28;20067;-35
2021/10/28 10:04:12;;;;;;;15.45;10.48;;;;;;;12.44;84.62;101638.97;4976718;28;20372;-36
2021/10/28 10:06:42;;;;;;;14.70;10.68;;;;;;;12.46;82.85;101637.72;4976103;28;20035;-35
2021/10/28 10:09:08;;;;;;;12.40;9.45;;;;;;;12.50;83.13;101632.69;4975915;28;20546;-36
2021/10/28 10:11:33;;;;;;;15.85;10.00;;;;;;;12.67;83.36;101638.31;4976344;28;20047;-35
2021/10/28 10:14:00;;;;;;;13.82;9.65;;;;;;;12.75;81.98;101632.63;5009589;28;20450;-35
2021/10/28 10:16:28;;;;;;;12.43;9.63;;;;;;;12.87;81.82;101633.50;5054545;28;20044;-35
2021/10/28 10:18:53;;;;;;;14.57;9.75;;;;;;;12.88;81.06;101624.28;5054989;28;20029;-35
2021/10/28 10:21:30;;;;;;;17.77;10.40;;;;;;;13.01;79.85;101631.47;5054479;28;20029;-36
2021/10/28 11:22:30;;;;;;;12.45;7.97;;;;;;;14.60;75.54;101559.09;5116849;28;19910;-36
2021/10/28 12:54:03;;;;;;;5.55;3.60;;;;;;;15.86;65.63;101410.84;5114534;28;19908;-36
2021/10/28 13:35:34;;;;;;;6.53;3.25;;;;;;;15.98;65.31;101351.56;5011620;28;20104;-36
2021/10/28 13:38:02;;;;;;;4.80;3.60;;;;;;;15.95;64.06;101347.44;5011020;28;20510;-36
2021/10/28 15:29:00;;;;;;;3.63;1.80;;;;;;;15.02;63.90;101261.94;5095925;28;20035;-36
2021/10/28 15:32:01;;;;;;;4.95;1.90;;;;;;;14.89;64.55;101241.34;5096134;28;20415;-36
2021/10/28 15:39:37;;;;;;;7.07;2.13;;;;;;;14.83;65.60;101260.56;5096079;28;20024;-36
2021/10/28 16:22:15;;;;;;;4.07;2.60;;;;;;;13.98;70.75;101237.09;5072706;28;20110;-36
2021/10/28 16:24:41;;;;;;;4.50;2.00;;;;;;;13.95;70.63;101232.94;5062612;28;20526;-36
2021/10/28 16:27:06;;;;;;;3.85;2.35;;;;;;;13.93;70.81;101243.25;5051953;28;20028;-36
2021/10/28 16:29:32;;;;;;;4.77;2.40;;;;;;;13.79;71.35;101228.31;5051901;28;20029;-36
2021/10/28 16:31:58;;;;;;;3.72;2.13;;;;;;;13.79;71.44;101236.47;5052217;28;20311;-36
2021/10/28 16:34:25;;;;;;;3.78;2.38;;;;;;;13.57;71.77;101218.13;5051883;28;20028;-36
2021/10/28 16:36:52;;;;;;;3.58;2.38;;;;;;;13.66;72.59;101237.56;5052556;28;20116;-36
2021/10/28 16:39:17;;;;;;;;;;;;;;;13.64;72.34;101231.56;5054301;28;20376;-36
2021/10/28 16:41:46;;;;;;;6.18;2.50;;;;;;;13.49;72.66;101212.25;5054502;28;19991;-36
2021/10/28 16:44:12;;;;;;;5.65;2.38;;;;;;;13.45;73.44;101225.47;5054060;28;20017;-36
2021/10/28 16:46:39;;;;;;;3.50;2.50;;;;;;;13.33;73.67;101224.69;5053848;28;20418;-36
2021/10/28 16:49:06;;;;;;;7.68;2.53;;;;;;;13.24;74.48;101228.84;5053941;28;20063;-36
2021/10/28 16:51:32;;;;;;;5.18;3.25;;;;;;;13.23;74.44;101225.31;5054762;28;20025;-36
2021/10/28 16:53:57;;;;;;;5.90;2.90;;;;;;;13.15;74.57;101226.44;5053857;28;20100;-36
2021/10/28 16:56:23;;;;;;;5.20;2.88;;;;;;;13.15;74.61;101220.19;5054167;28;20029;-36
2021/10/28 16:58:49;;;;;;;4.93;2.87;;;;;;;13.14;74.67;101232.97;5053844;28;20033;-36
2021/10/28 17:01:14;;;;;;;8.18;3.20;;;;;;;13.13;74.99;101228.59;5053897;28;20248;-36
2021/10/28 17:03:39;;;;;;;8.65;3.00;;;;;;;12.95;74.96;101204.28;5053682;28;20107;-36
2021/10/28 17:06:06;;;;;;;5.00;3.17;;;;;;;12.93;75.41;101200.97;5054393;28;20017;-36
2021/10/28 17:08:32;;;;;;;;;;;;;;;13.09;75.00;101219.28;5054219;28;20073;-36
2021/10/28 17:10:58;;;;;;;6.43;3.65;;;;;;;12.99;75.03;101213.63;5053359;28;19916;-36
2021/10/28 17:13:24;;;;;;;5.85;3.17;;;;;;;12.92;75.54;101209.38;5053616;28;20024;-36
2021/10/28 17:15:50;;;;;;;8.23;4.00;;;;;;;12.85;76.69;101217.66;5053474;28;20016;-36
2021/10/28 17:18:15;;;;;;;7.07;3.95;;;;;;;12.83;77.00;101214.31;5053458;28;20028;-36
2021/10/28 17:20:41;;;;;;;6.05;3.70;;;;;;;12.71;76.47;101211.63;5053720;28;20100;-36
2021/10/28 17:23:11;;;;;;;5.75;3.50;;;;;;;12.68;77.40;101213.97;5053988;28;20046;-36
2021/10/28 17:25:39;;;;;;;6.78;3.42;;;;;;;12.58;77.85;101209.97;5089008;28;20051;-36
2021/10/28 17:28:05;;;;;;;4.57;2.97;;;;;;;12.56;77.74;101209.38;5093545;28;20035;-36
2021/10/28 17:30:31;;;;;;;7.47;2.90;;;;;;;12.53;77.60;101207.13;5093609;28;20023;-36
2021/10/28 17:32:56;;;;;;;4.70;2.97;;;;;;;12.33;77.99;101199.31;5094100;28;20020;-36
2021/10/28 17:35:21;;;;;;;5.77;3.53;;;;;;;12.40;78.47;101211.97;5093412;28;20446;-36
2021/10/28 17:37:47;;;;;;;5.75;3.35;;;;;;;12.33;78.87;101212.06;5093746;28;20363;-36
2021/10/28 17:40:12;;;;;;;5.27;2.93;;;;;;;12.35;78.96;101212.66;5093405;28;20027;-36
2021/10/28 17:42:39;;;;;;;5.13;3.43;;;;;;;12.29;79.04;101222.53;5093680;28;20048;-35
2021/10/28 17:45:07;;;;;;;8.13;3.58;;;;;;;12.22;79.54;101218.31;5093423;28;20614;-36
2021/10/28 17:47:32;;;;;;;6.95;3.13;;;;;;;12.23;80.17;101219.94;5093240;28;20032;-36
2021/10/28 17:49:58;;;;;;;5.25;3.20;;;;;;;12.16;79.95;101214.63;5093720;28;20103;-37
2021/10/28 17:52:24;;;;;;;5.93;3.05;;;;;;;12.18;79.91;101217.09;5092792;28;20016;-36
2021/10/28 17:54:50;;;;;;;5.28;3.35;;;;;;;12.08;80.34;101215.78;5093171;28;20024;-36
2021/10/28 17:57:15;;;;;;;5.87;3.33;;;;;;;12.02;80.46;101211.28;5093779;28;20449;-36
2021/10/28 17:59:42;;;;;;;6.45;4.22;;;;;;;11.94;80.90;101198.06;5093155;28;20026;-36
2021/10/28 18:02:08;;;;;;;8.15;4.50;;;;;;;11.99;81.04;101211.75;5093676;28;20055;-36
2021/10/28 18:04:34;;;;;;;6.82;3.83;;;;;;;11.95;81.08;101207.03;5092810;28;20044;-36
2021/10/28 18:06:59;;;;;;;9.55;4.20;;;;;;;11.96;81.09;101204.09;5093315;28;20064;-36
2021/10/28 18:09:26;;;;;;;6.60;4.78;;;;;;;11.99;80.97;101208.22;5093589;28;20020;-36
2021/10/28 18:11:53;;;;;;;7.07;4.97;;;;;;;11.87;81.66;101205.47;5093255;28;20050;-36
2021/10/28 18:14:18;;;;;;;7.00;5.10;;;;;;;11.75;81.67;101185.59;5092705;28;20094;-36
2021/10/28 18:16:45;;;;;;;7.10;4.93;;;;;;;11.87;81.55;101201.94;5093091;28;20028;-36
2021/10/28 18:19:10;;;;;;;7.80;4.93;;;;;;;11.84;81.53;101211.34;5093203;28;20432;-36
2021/10/28 18:21:39;;;;;;;7.80;5.22;;;;;;;11.81;81.40;101193.66;5093230;28;20042;-36
2021/10/28 18:24:05;;;;;;;7.68;4.75;;;;;;;11.78;81.55;101198.69;5096849;28;20020;-37
2021/10/28 18:26:31;;;;;;;5.82;4.63;;;;;;;11.73;82.12;101202.09;5097382;28;20448;-36
2021/10/28 18:28:57;;;;;;;6.38;4.45;;;;;;;11.74;81.91;101202.91;5096603;28;20028;-36
2021/10/28 18:31:24;;;;;;;7.70;4.97;;;;;;;11.69;82.20;101203.59;5097195;28;20030;-36
2021/10/28 18:33:50;;;;;;;9.48;4.63;;;;;;;11.69;82.01;101200.91;5096863;28;20024;-36
2021/10/28 18:36:16;;;;;;;9.38;4.95;;;;;;;11.72;81.85;101203.16;5096776;28;20038;-36
2021/10/28 18:38:45;;;;;;;5.65;4.68;;;;;;;11.76;81.64;101195.38;5097523;28;20043;-36
2021/10/28 18:41:20;;;;;;;6.72;4.57;;;;;;;11.64;81.80;101179.09;5096768;28;20198;-36
2021/10/28 18:43:47;;;;;;;7.32;5.28;;;;;;;11.75;81.67;101191.03;5096577;28;20028;-36
2021/10/28 18:46:21;;;;;;;7.15;4.75;;;;;;;11.70;82.07;101199.00;5096572;28;20034;-35
2021/10/28 18:48:57;;;;;;;8.80;5.05;;;;;;;11.72;82.06;101213.16;5096545;28;20016;-36
2021/10/28 18:51:23;;;;;;;7.43;5.43;;;;;;;11.66;82.20;101204.06;5097194;28;20024;-36
2021/10/28 18:53:49;;;;;;;13.60;11.50;;;;;;;11.59;82.38;101204.16;5096458;28;20126;-36
2021/10/28 18:56:16;;;;;;;9.30;6.75;;;;;;;11.62;82.20;101213.72;5096091;28;20270;-36
2021/10/28 18:58:43;;;;;;;15.77;12.88;;;;;;;11.59;82.35;101201.44;5096976;28;20024;-36
2021/10/28 19:01:09;;;;;;;10.38;6.38;;;;;;;11.45;82.08;101181.00;5096018;28;20020;-36
2021/10/28 19:03:38;;;;;;;8.52;4.70;;;;;;;11.39;82.42;101172.97;5096850;28;20344;-36
2021/10/28 19:06:03;;;;;;;8.88;5.50;;;;;;;11.55;82.53;101194.81;5096054;28;20401;-36
2021/10/28 19:08:29;;;;;;;7.80;5.40;;;;;;;11.47;82.67;101200.59;5109293;28;20035;-36
2021/10/28 19:10:54;;;;;;;7.30;5.23;;;;;;;11.46;82.55;101196.19;5116503;28;20111;-36
2021/10/28 19:13:20;;;;;;;7.90;4.63;;;;;;;11.32;82.56;101173.91;5116557;28;20016;-36
2021/10/28 19:15:45;;;;;;;11.02;4.95;;;;;;;11.21;82.34;101163.81;5116164;28;20375;-36
2021/10/28 19:18:11;;;;;;;11.90;5.60;;;;;;;11.35;82.80;101188.84;5116382;28;20376;-36
2021/10/28 19:20:37;;;;;;;16.90;12.95;;;;;;;11.31;83.33;101182.22;5116406;28;20042;-36
2021/10/28 19:23:05;;;;;;;43.53;31.60;;;;;;;11.23;83.16;101177.16;5116141;28;20535;-36
2021/10/28 19:25:31;;;;;;;19.73;14.93;;;;;;;11.28;83.09;101188.13;5117196;28;20039;-36
2021/10/28 19:27:56;;;;;;;17.67;12.93;;;;;;;11.22;83.43;101183.59;5116676;28;20096;-35
2021/10/28 19:32:52;;;;;;;10.02;7.15;;;;;;;11.08;83.98;101178.34;5115961;28;20612;-36
2021/10/28 19:35:21;;;;;;;11.95;6.95;;;;;;;11.06;84.01;101172.31;5115951;28;20024;-36
2021/10/28 19:47:44;;;;;;;13.23;7.20;;;;;;;10.86;85.38;101160.91;5115722;28;20027;-36
2021/10/28 19:50:13;;;;;;;10.88;7.53;;;;;;;10.79;85.22;101144.75;5115673;28;20026;-36
2021/10/28 19:52:40;;;;;;;8.95;7.38;;;;;;;10.82;85.46;101160.53;5115675;28;20047;-36
2021/10/28 19:55:09;;;;;;;13.25;7.53;;;;;;;10.86;85.32;101158.19;5115608;28;20027;-36
2021/10/28 19:57:37;;;;;;;14.55;7.72;;;;;;;10.83;85.61;101164.03;5115868;28;20035;-36
2021/10/28 20:21:13;;;;;;;10.70;7.45;;;;;;;10.46;85.76;101133.47;5115146;28;20348;-36
2021/10/28 20:23:40;;;;;;;10.38;7.57;;;;;;;10.59;85.61;101154.97;5115339;28;20089;-36
2021/10/28 20:26:06;;;;;;;10.02;7.57;;;;;;;10.50;85.91;101153.59;5115600;28;20048;-36
2021/10/28 20:28:39;;;;;;;11.55;7.68;;;;;;;10.53;86.07;101150.44;5115179;28;20042;-36
2021/10/28 20:31:06;;;;;;;9.23;7.30;;;;;;;10.48;85.65;101148.38;5114969;28;20091;-35
2021/10/28 20:33:33;;;;;;;10.40;7.30;;;;;;;10.50;85.51;101145.47;5114650;28;20034;-36
2021/10/28 20:38:36;;;;;;;10.23;7.43;;;;;;;10.43;85.67;101137.41;5114910;28;20421;-36
2021/10/28 20:41:02;;;;;;;12.50;7.80;;;;;;;10.39;85.26;101148.91;5114768;28;20035;-36
2021/10/28 20:43:28;;;;;;;11.18;7.80;;;;;;;10.31;86.03;101128.41;5114779;28;20110;-36
2021/10/28 20:45:54;;;;;;;11.38;7.20;;;;;;;10.44;85.57;101140.94;5114622;28;20020;-36
2021/10/28 20:48:19;;;;;;;9.85;7.13;;;;;;;10.41;85.22;101141.41;5114322;28;20023;-36
2021/10/28 20:50:44;;;;;;;8.95;7.90;;;;;;;10.37;85.35;101134.78;5114567;28;20023;-36
2021/10/28 20:53:10;;;;;;;8.63;7.70;;;;;;;10.32;85.18;101119.22;5114215;28;20027;-36
2021/10/28 20:55:35;;;;;;;10.17;7.97;;;;;;;10.32;85.47;101135.44;5115095;28;20306;-36